Time;durP1;ratioP1;P1;durP2;ratioP2;P2;SDS_P1;SDS_P2;PMS_P1;PMS_P2;Temp;Humidity;BMP_temperature;BMP_pressure;BME280_temperature;BME280_humidity;BME280_pressure;Samples;Min_cycle;Max_cycle;Signal;HPM_P1;HPM_P2
2022/06/09 00:00:21;;;;;;;3.53;1.87;;;11.80;54.30;;;;;;5059271;28;20712;-77
2022/06/09 00:02:52;;;;;;;2.77;1.70;;;11.90;54.10;;;;;;5037934;28;20169;-73
2022/06/09 00:05:20;;;;;;;1.47;1.10;;;11.90;52.60;;;;;;5041791;28;20181;-73
2022/06/09 00:07:50;;;;;;;3.20;1.70;;;12.00;51.80;;;;;;5034589;28;20252;-74
2022/06/09 00:10:22;;;;;;;2.37;1.60;;;12.20;52.20;;;;;;5041365;28;20196;-75
2022/06/09 00:12:53;;;;;;;2.13;1.50;;;12.20;52.30;;;;;;5066295;28;20170;-81
2022/06/09 00:15:30;;;;;;;2.33;1.40;;;12.30;51.70;;;;;;5062002;28;20187;-78
2022/06/09 00:17:57;;;;;;;2.70;1.33;;;12.30;51.40;;;;;;5058025;28;20185;-79
2022/06/09 00:20:26;;;;;;;1.37;1.13;;;12.40;51.00;;;;;;5062240;28;20203;-82
2022/06/09 00:22:53;;;;;;;3.73;1.63;;;12.50;50.60;;;;;;5045451;28;20267;-74
2022/06/09 00:25:28;;;;;;;1.50;1.40;;;12.60;50.70;;;;;;5038222;28;20302;-79
2022/06/09 00:27:56;;;;;;;3.00;1.60;;;12.60;50.60;;;;;;5034249;28;20669;-80
2022/06/09 00:30:26;;;;;;;1.97;1.63;;;12.80;50.90;;;;;;5038869;28;20613;-81
2022/06/09 00:32:57;;;;;;;2.30;1.40;;;12.90;50.10;;;;;;5065484;28;20569;-78
2022/06/09 00:35:25;;;;;;;3.43;1.50;;;13.00;49.70;;;;;;5032321;28;20183;-78
2022/06/09 00:38:01;;;;;;;4.83;1.63;;;12.90;50.20;;;;;;5034296;28;20165;-77
2022/06/09 00:40:29;;;;;;;2.63;1.43;;;13.10;49.50;;;;;;5032456;28;20172;-80
2022/06/09 00:42:59;;;;;;;4.00;1.47;;;13.20;49.80;;;;;;5034071;28;20252;-81
2022/06/09 00:45:39;;;;;;;2.40;1.30;;;13.30;49.50;;;;;;5033757;28;20169;-80
2022/06/09 00:48:21;;;;;;;5.87;1.77;;;13.40;49.10;;;;;;5033344;28;20204;-78
2022/06/09 00:51:05;;;;;;;2.23;1.20;;;13.50;49.30;;;;;;5032317;28;20234;-77
2022/06/09 00:53:38;;;;;;;3.13;1.37;;;13.70;48.40;;;;;;5033811;28;20230;-79
2022/06/09 00:56:10;;;;;;;5.67;1.33;;;13.70;47.50;;;;;;5033704;28;20180;-83
2022/06/09 00:58:41;;;;;;;5.03;1.43;;;13.80;47.50;;;;;;5033591;28;20265;-71
2022/06/09 01:01:12;;;;;;;1.70;1.23;;;14.00;46.70;;;;;;5033188;28;20208;-73
2022/06/09 01:03:48;;;;;;;1.97;1.20;;;14.10;47.20;;;;;;5033056;28;20184;-76
2022/06/09 01:06:23;;;;;;;1.73;0.90;;;14.20;46.30;;;;;;5033146;28;20184;-71
2022/06/09 01:09:08;;;;;;;1.97;1.33;;;14.20;45.00;;;;;;5036422;28;20215;-78
2022/06/09 01:11:36;;;;;;;1.40;1.00;;;14.30;47.10;;;;;;5033194;28;20172;-77
2022/06/09 01:14:05;;;;;;;1.50;1.20;;;14.50;44.20;;;;;;5033033;28;20191;-71
2022/06/09 01:16:45;;;;;;;3.00;0.90;;;14.70;43.90;;;;;;5031633;28;20537;-74
2022/06/09 01:19:23;;;;;;;1.33;0.90;;;14.70;42.70;;;;;;5035098;28;20512;-81
2022/06/09 01:22:28;;;;;;;3.10;1.07;;;14.50;42.50;;;;;;5052896;28;20176;-72
2022/06/09 01:25:09;;;;;;;1.80;0.90;;;14.60;42.90;;;;;;5042121;28;20255;-77
2022/06/09 01:27:46;;;;;;;2.43;0.97;;;14.80;43.10;;;;;;5032865;28;20295;-78
2022/06/09 01:30:17;;;;;;;2.83;0.70;;;15.00;42.80;;;;;;5032693;28;20271;-73
2022/06/09 01:32:59;;;;;;;3.80;0.90;;;15.20;42.40;;;;;;5055839;28;20255;-73
2022/06/09 01:35:40;;;;;;;0.97;0.87;;;15.20;41.70;;;;;;5059537;28;20173;-72
2022/06/09 01:38:08;;;;;;;1.53;0.80;;;14.70;42.00;;;;;;5034580;28;20173;-74
2022/06/09 01:40:36;;;;;;;4.33;0.80;;;14.70;42.50;;;;;;5040908;28;20183;-74
2022/06/09 01:43:05;;;;;;;2.43;0.90;;;14.80;42.20;;;;;;5046687;28;20204;-77
2022/06/09 01:45:50;;;;;;;1.17;0.77;;;14.80;42.30;;;;;;5039932;28;20188;-75
2022/06/09 01:48:20;;;;;;;4.37;0.80;;;14.90;41.90;;;;;;5031469;28;20281;-75
2022/06/09 01:50:57;;;;;;;0.70;0.70;;;15.10;41.80;;;;;;5050593;28;20233;-73
2022/06/09 01:53:46;;;;;;;1.43;0.90;;;15.10;41.40;;;;;;5050821;28;20179;-76
2022/06/09 01:56:30;;;;;;;4.13;0.80;;;15.20;41.10;;;;;;5043166;28;20195;-75
2022/06/09 01:59:20;;;;;;;0.80;0.80;;;15.10;40.80;;;;;;5045109;28;20195;-74
2022/06/09 02:02:00;;;;;;;0.90;0.70;;;15.20;41.00;;;;;;5043214;28;20192;-72
2022/06/09 02:04:40;;;;;;;2.53;0.90;;;15.40;40.70;;;;;;5049155;28;20172;-79
2022/06/09 02:07:10;;;;;;;2.23;0.87;;;15.50;41.40;;;;;;5048560;28;20209;-73
2022/06/09 02:09:38;;;;;;;1.33;0.80;;;15.80;40.00;;;;;;5053522;28;20610;-74
2022/06/09 02:12:12;;;;;;;1.37;0.70;;;15.40;40.40;;;;;;5050880;28;20660;-74
2022/06/09 02:15:04;;;;;;;1.07;0.70;;;15.60;40.60;;;;;;5048271;28;20522;-76
2022/06/09 02:17:43;;;;;;;6.17;0.83;;;15.50;40.60;;;;;;5068478;28;20178;-78
2022/06/09 02:20:15;;;;;;;1.43;0.80;;;15.70;40.80;;;;;;5032610;28;20184;-78
2022/06/09 02:22:43;;;;;;;4.47;0.80;;;15.80;40.60;;;;;;5031346;28;20188;-75
2022/06/09 02:25:11;;;;;;;0.80;0.60;;;15.80;40.60;;;;;;5032440;28;20231;-74
2022/06/09 02:27:39;;;;;;;1.00;0.70;;;15.60;40.30;;;;;;5032459;28;20613;-75
2022/06/09 02:30:10;;;;;;;1.03;0.80;;;15.70;40.80;;;;;;5032550;28;20193;-76
2022/06/09 02:32:37;;;;;;;1.03;0.70;;;15.90;40.20;;;;;;5031161;28;20535;-80
2022/06/09 02:35:05;;;;;;;0.80;0.70;;;15.90;40.50;;;;;;5032532;28;20173;-75
2022/06/09 02:37:32;;;;;;;0.77;0.60;;;16.00;40.80;;;;;;5032196;28;20195;-75
2022/06/09 02:40:00;;;;;;;0.60;0.60;;;16.10;39.70;;;;;;5052049;28;20180;-77
2022/06/09 02:42:27;;;;;;;0.87;0.80;;;16.20;39.90;;;;;;5072205;28;20183;-72
2022/06/09 02:44:55;;;;;;;0.80;0.63;;;16.20;40.10;;;;;;5050263;28;20242;-77
2022/06/09 02:47:22;;;;;;;4.60;0.80;;;15.90;40.70;;;;;;5053455;28;20219;-72
2022/06/09 02:49:50;;;;;;;1.20;0.80;;;16.20;40.70;;;;;;5041344;28;20748;-74
2022/06/09 02:52:17;;;;;;;1.37;0.70;;;16.20;40.50;;;;;;5053494;28;20181;-72
2022/06/09 02:54:44;;;;;;;0.77;0.70;;;16.00;40.70;;;;;;5053430;28;20657;-75
2022/06/09 02:57:12;;;;;;;1.03;0.77;;;16.00;41.00;;;;;;5050679;28;20271;-75
2022/06/09 02:59:39;;;;;;;0.93;0.70;;;16.20;40.70;;;;;;5035938;28;20170;-75
2022/06/09 03:02:07;;;;;;;0.87;0.70;;;16.40;40.30;;;;;;5035343;28;20195;-74
2022/06/09 03:04:34;;;;;;;1.67;0.90;;;16.70;40.00;;;;;;5035783;28;20569;-73
2022/06/09 03:07:01;;;;;;;1.10;1.00;;;16.40;40.00;;;;;;5035628;28;20188;-72
2022/06/09 03:09:29;;;;;;;3.23;0.90;;;16.30;40.00;;;;;;5045396;28;20215;-73
2022/06/09 03:11:56;;;;;;;1.73;0.80;;;16.20;40.10;;;;;;5038892;28;20174;-76
2022/06/09 03:14:24;;;;;;;2.27;0.70;;;16.30;40.30;;;;;;5036560;28;20544;-78
2022/06/09 03:16:51;;;;;;;2.00;1.07;;;16.40;39.80;;;;;;5046836;28;20273;-74
2022/06/09 03:19:19;;;;;;;5.53;0.90;;;16.70;39.60;;;;;;5054062;28;20206;-75
2022/06/09 03:21:47;;;;;;;0.70;0.60;;;16.80;39.40;;;;;;5050863;28;20230;-74
2022/06/09 03:24:14;;;;;;;4.60;0.97;;;16.80;38.60;;;;;;5050799;28;20892;-72
2022/06/09 03:26:42;;;;;;;2.73;0.80;;;16.70;39.20;;;;;;5057104;28;20735;-77
2022/06/09 03:29:09;;;;;;;3.60;0.70;;;16.70;39.00;;;;;;5047174;28;20268;-73
2022/06/09 03:31:37;;;;;;;0.70;0.70;;;16.70;39.00;;;;;;5034587;28;20574;-75
2022/06/09 03:34:05;;;;;;;1.00;0.60;;;17.00;38.40;;;;;;5041334;28;20290;-75
2022/06/09 03:36:32;;;;;;;0.63;0.60;;;17.30;37.70;;;;;;5050433;28;20183;-75
2022/06/09 03:39:01;;;;;;;1.23;0.70;;;17.40;36.90;;;;;;5035467;28;20180;-79
2022/06/09 03:41:28;;;;;;;4.17;0.70;;;17.20;37.90;;;;;;5039823;28;20187;-76
2022/06/09 03:43:56;;;;;;;0.80;0.80;;;17.50;37.00;;;;;;5037570;28;20189;-76
2022/06/09 03:46:23;;;;;;;1.30;0.60;;;17.40;37.50;;;;;;5034511;28;20212;-73
2022/06/09 03:48:51;;;;;;;4.03;0.80;;;17.50;37.60;;;;;;5032316;28;20230;-77
2022/06/09 03:51:18;;;;;;;0.70;0.70;;;17.50;37.70;;;;;;5035814;28;20188;-74
2022/06/09 03:53:45;;;;;;;0.50;0.50;;;17.80;37.20;;;;;;5048665;28;20544;-77
2022/06/09 03:56:22;;;;;;;1.17;0.80;;;17.80;37.10;;;;;;5034167;28;20642;-78
2022/06/09 03:58:50;;;;;;;0.70;0.70;;;17.80;36.80;;;;;;5034171;28;20172;-78
2022/06/09 04:01:18;;;;;;;0.87;0.63;;;17.80;36.80;;;;;;5043549;28;20192;-74
2022/06/09 04:03:47;;;;;;;2.20;0.70;;;18.00;36.40;;;;;;5046685;28;20185;-76
2022/06/09 04:06:23;;;;;;;0.80;0.60;;;18.00;36.00;;;;;;5049067;28;20181;-81
2022/06/09 04:08:51;;;;;;;0.70;0.70;;;18.20;35.80;;;;;;5040622;28;20290;-76
2022/06/09 04:11:21;;;;;;;1.50;0.73;;;18.60;35.40;;;;;;5049346;28;20204;-76
2022/06/09 04:13:48;;;;;;;1.30;0.60;;;17.80;36.80;;;;;;5042661;28;20177;-74
2022/06/09 04:16:27;;;;;;;1.33;0.60;;;17.50;36.50;;;;;;5046370;28;20185;-75
2022/06/09 04:19:01;;;;;;;0.93;0.80;;;17.70;36.00;;;;;;5033708;28;20187;-76
2022/06/09 04:21:30;;;;;;;0.93;0.60;;;17.90;36.00;;;;;;5051336;28;20184;-78
2022/06/09 04:23:58;;;;;;;1.40;0.70;;;18.00;35.00;;;;;;5048251;28;20692;-78
2022/06/09 04:26:28;;;;;;;4.17;0.70;;;18.30;35.30;;;;;;5044817;28;20219;-76
2022/06/09 04:28:56;;;;;;;2.87;0.90;;;18.30;36.30;;;;;;5033953;28;20212;-74
2022/06/09 04:31:24;;;;;;;1.40;0.80;;;18.00;37.10;;;;;;5042676;28;20211;-76
2022/06/09 04:33:51;;;;;;;0.63;0.57;;;17.80;35.50;;;;;;5046012;28;20218;-77
2022/06/09 04:36:20;;;;;;;1.20;0.53;;;17.50;36.40;;;;;;5036301;28;20181;-79
2022/06/09 04:38:48;;;;;;;0.60;0.60;;;17.90;36.10;;;;;;5041142;28;20187;-78
2022/06/09 04:41:17;;;;;;;3.43;0.73;;;18.20;35.30;;;;;;5046224;28;20207;-74
2022/06/09 04:43:46;;;;;;;1.80;0.60;;;18.10;35.40;;;;;;5033348;28;20187;-73
2022/06/09 04:46:18;;;;;;;1.67;0.70;;;18.20;35.10;;;;;;5033376;28;20181;-77
2022/06/09 04:48:46;;;;;;;1.03;0.70;;;18.30;34.70;;;;;;5060509;28;20719;-74
2022/06/09 04:51:19;;;;;;;0.57;0.53;;;18.80;34.10;;;;;;5058978;28;20652;-73
2022/06/09 04:53:47;;;;;;;0.60;0.60;;;18.50;34.10;;;;;;5068324;28;20266;-73
2022/06/09 04:56:15;;;;;;;2.60;0.70;;;18.40;34.50;;;;;;5056043;28;20176;-75
2022/06/09 04:58:43;;;;;;;1.00;0.60;;;18.40;34.60;;;;;;5044313;28;20176;-71
2022/06/09 05:01:19;;;;;;;0.93;0.70;;;18.40;34.30;;;;;;5043453;28;20195;-77
2022/06/09 05:03:49;;;;;;;0.60;0.60;;;18.40;34.40;;;;;;5050446;28;20638;-74
2022/06/09 05:06:18;;;;;;;0.60;0.60;;;18.40;34.40;;;;;;5059783;28;20172;-73
2022/06/09 05:08:47;;;;;;;0.60;0.60;;;18.00;34.60;;;;;;5059935;28;20687;-72
2022/06/09 05:11:14;;;;;;;1.67;0.90;;;17.90;34.40;;;;;;5042928;28;20646;-74
2022/06/09 05:13:42;;;;;;;1.03;0.70;;;18.00;34.80;;;;;;5052940;28;20186;-72
2022/06/09 05:16:11;;;;;;;2.77;1.00;;;18.20;34.70;;;;;;5038375;28;20176;-71
2022/06/09 05:18:39;;;;;;;0.70;0.70;;;18.00;34.70;;;;;;5044219;28;20607;-75
2022/06/09 05:21:08;;;;;;;1.60;0.60;;;17.90;34.80;;;;;;5045765;28;20190;-74
2022/06/09 05:23:36;;;;;;;3.60;0.60;;;17.80;34.80;;;;;;5053233;28;20184;-73
2022/06/09 05:26:06;;;;;;;0.60;0.60;;;17.40;35.60;;;;;;5042023;28;20754;-73
2022/06/09 05:28:34;;;;;;;2.50;0.70;;;17.30;35.80;;;;;;5047958;28;20606;-76
2022/06/09 05:31:02;;;;;;;1.13;0.50;;;17.30;36.10;;;;;;5044169;28;20560;-74
2022/06/09 05:33:29;;;;;;;1.67;0.60;;;17.30;36.10;;;;;;5047177;28;20190;-73
2022/06/09 05:35:57;;;;;;;0.97;0.60;;;17.40;35.90;;;;;;5048482;28;20187;-72
2022/06/09 05:46:45;;;;;;;1.63;0.80;;;17.50;36.10;;;;;;5050776;28;20179;-75
2022/06/09 05:49:13;;;;;;;0.60;0.60;;;17.70;36.50;;;;;;5044901;28;20255;-73
2022/06/09 05:51:41;;;;;;;0.90;0.60;;;17.40;37.70;;;;;;5047825;28;20554;-74
2022/06/09 05:54:09;;;;;;;0.73;0.60;;;17.50;37.80;;;;;;5045747;28;20187;-76
2022/06/09 05:56:37;;;;;;;1.23;0.70;;;17.20;38.60;;;;;;5049196;28;20191;-73
2022/06/09 05:59:04;;;;;;;0.67;0.67;;;17.20;38.70;;;;;;5050367;28;20180;-73
2022/06/09 06:01:32;;;;;;;0.67;0.60;;;17.00;39.20;;;;;;5047487;28;20633;-73
2022/06/09 06:04:00;;;;;;;1.00;0.90;;;16.70;39.90;;;;;;5045741;28;20188;-71
2022/06/09 06:06:33;;;;;;;1.70;0.80;;;16.00;41.60;;;;;;5048176;28;20541;-74
2022/06/09 06:09:04;;;;;;;0.80;0.70;;;15.50;42.30;;;;;;5048579;28;20225;-79
2022/06/09 06:11:32;;;;;;;0.80;0.80;;;15.20;43.30;;;;;;5044200;28;20212;-76
2022/06/09 06:13:59;;;;;;;0.70;0.70;;;15.20;43.30;;;;;;5050951;28;20189;-74
2022/06/09 06:16:27;;;;;;;2.70;1.13;;;15.30;43.20;;;;;;5052004;28;20183;-73
2022/06/09 06:18:55;;;;;;;1.17;0.90;;;15.10;43.40;;;;;;5050997;28;20219;-75
2022/06/09 06:21:23;;;;;;;0.90;0.90;;;14.90;43.60;;;;;;5049078;28;20542;-76
2022/06/09 06:23:52;;;;;;;0.90;0.90;;;14.80;44.20;;;;;;5052161;28;20186;-76
2022/06/09 06:26:19;;;;;;;2.30;0.80;;;14.80;44.60;;;;;;5047096;28;20238;-74
2022/06/09 06:28:47;;;;;;;0.70;0.70;;;14.70;44.30;;;;;;5044149;28;20205;-74
2022/06/09 06:31:15;;;;;;;6.47;1.77;;;14.50;44.80;;;;;;5043925;28;20192;-79
2022/06/09 06:33:42;;;;;;;0.80;0.80;;;14.30;45.50;;;;;;5050272;28;20195;-74
2022/06/09 06:36:10;;;;;;;1.03;0.90;;;14.20;45.70;;;;;;5053500;28;20191;-74
2022/06/09 06:38:39;;;;;;;1.23;0.90;;;14.20;45.90;;;;;;5054093;28;20176;-74
2022/06/09 06:41:11;;;;;;;0.77;0.77;;;14.00;46.00;;;;;;5054583;28;20558;-72
2022/06/09 06:43:39;;;;;;;1.17;0.80;;;14.00;46.50;;;;;;5055600;28;20630;-71
2022/06/09 06:46:07;;;;;;;1.10;1.00;;;13.90;46.80;;;;;;5050662;28;20180;-72
2022/06/09 06:48:35;;;;;;;0.83;0.77;;;13.80;47.10;;;;;;5053915;28;20690;-73
2022/06/09 06:51:03;;;;;;;1.00;0.90;;;13.80;47.40;;;;;;5061792;28;20229;-77
2022/06/09 06:53:30;;;;;;;1.40;0.90;;;13.70;47.70;;;;;;5050244;28;20191;-73
2022/06/09 06:55:58;;;;;;;2.87;0.90;;;13.60;48.20;;;;;;5053966;28;20172;-75
2022/06/09 06:58:25;;;;;;;0.80;0.80;;;13.50;48.50;;;;;;5053918;28;20184;-73
2022/06/09 07:00:52;;;;;;;1.00;0.90;;;13.50;48.40;;;;;;5057947;28;20259;-79
2022/06/09 07:03:20;;;;;;;1.20;1.10;;;13.50;48.60;;;;;;5058641;28;20195;-75
2022/06/09 07:05:48;;;;;;;1.20;1.00;;;13.30;49.00;;;;;;5051720;28;20180;-74
2022/06/09 07:08:16;;;;;;;0.80;0.80;;;13.30;49.00;;;;;;5051102;28;20214;-73
2022/06/09 07:10:46;;;;;;;0.87;0.80;;;13.20;49.40;;;;;;5052502;28;20214;-72
2022/06/09 07:13:14;;;;;;;1.00;0.90;;;13.20;49.20;;;;;;5053129;28;20183;-71
2022/06/09 07:15:41;;;;;;;1.63;0.90;;;13.20;49.50;;;;;;5052503;28;20217;-77
2022/06/09 07:18:09;;;;;;;0.90;0.90;;;13.10;50.00;;;;;;5052462;28;20180;-73
2022/06/09 07:20:39;;;;;;;1.07;1.00;;;13.00;50.00;;;;;;5050148;28;20275;-74
2022/06/09 07:23:07;;;;;;;0.93;0.93;;;13.00;50.30;;;;;;5049269;28;20602;-74
2022/06/09 07:25:34;;;;;;;1.27;1.10;;;13.00;50.50;;;;;;5054131;28;20239;-74
2022/06/09 07:28:02;;;;;;;2.13;1.10;;;12.90;50.70;;;;;;5041113;28;20188;-78
2022/06/09 07:30:29;;;;;;;2.60;1.20;;;12.90;50.70;;;;;;5053286;28;20168;-80
2022/06/09 07:32:57;;;;;;;1.33;1.00;;;12.80;51.10;;;;;;5036921;28;20231;-73
2022/06/09 07:35:27;;;;;;;2.07;1.20;;;12.80;51.10;;;;;;5044507;28;20215;-78
2022/06/09 07:37:56;;;;;;;2.67;1.10;;;12.80;51.30;;;;;;5042104;28;20188;-74
2022/06/09 07:40:23;;;;;;;2.13;1.27;;;12.70;51.60;;;;;;5047578;28;20925;-77
2022/06/09 07:42:51;;;;;;;1.13;1.03;;;12.70;51.80;;;;;;5056995;28;20215;-77
2022/06/09 07:45:19;;;;;;;2.43;0.90;;;12.70;52.20;;;;;;5051829;28;20730;-74
2022/06/09 07:47:46;;;;;;;2.40;1.00;;;12.60;52.00;;;;;;5045216;28;20586;-75
2022/06/09 07:50:15;;;;;;;2.50;1.00;;;12.60;52.20;;;;;;5047500;28;20254;-77
2022/06/09 07:52:43;;;;;;;1.40;1.20;;;12.60;52.40;;;;;;5048944;28;20180;-73
2022/06/09 07:55:11;;;;;;;1.90;1.20;;;12.50;52.40;;;;;;5051137;28;20175;-76
2022/06/09 07:57:39;;;;;;;1.47;1.10;;;12.50;52.50;;;;;;5056413;28;20249;-83
2022/06/09 08:00:13;;;;;;;10.60;1.40;;;12.40;52.80;;;;;;5049649;28;20681;-79
2022/06/09 08:02:43;;;;;;;1.63;1.30;;;12.30;53.20;;;;;;5046685;28;20581;-80
2022/06/09 08:05:10;;;;;;;1.53;1.20;;;12.30;53.10;;;;;;5045177;28;20192;-78
2022/06/09 08:07:38;;;;;;;1.37;1.27;;;12.30;53.30;;;;;;5047894;28;20199;-78
2022/06/09 08:10:07;;;;;;;1.93;1.07;;;12.20;53.80;;;;;;5052627;28;20222;-71
2022/06/09 08:12:35;;;;;;;3.03;1.47;;;12.20;53.80;;;;;;5052567;28;20198;-77
2022/06/09 08:15:03;;;;;;;1.30;1.20;;;12.20;53.70;;;;;;5046883;28;20175;-74
2022/06/09 08:17:30;;;;;;;3.43;1.73;;;12.20;53.40;;;;;;5051156;28;20180;-75
2022/06/09 08:19:58;;;;;;;2.07;1.50;;;12.20;53.60;;;;;;5049679;28;20178;-77
2022/06/09 08:22:25;;;;;;;1.50;1.40;;;12.20;53.80;;;;;;5045545;28;20183;-80
2022/06/09 08:24:53;;;;;;;3.33;1.20;;;12.10;53.70;;;;;;5055029;28;20180;-78
2022/06/09 08:27:21;;;;;;;1.40;1.30;;;12.20;53.60;;;;;;5051729;28;20198;-79
2022/06/09 08:29:48;;;;;;;5.43;1.63;;;12.20;53.80;;;;;;5047906;28;20216;-79
2022/06/09 08:32:16;;;;;;;1.70;1.43;;;12.00;54.20;;;;;;5052635;28;20187;-76
2022/06/09 08:34:44;;;;;;;1.87;1.60;;;12.10;54.20;;;;;;5047625;28;20196;-80
2022/06/09 08:37:11;;;;;;;3.70;1.40;;;12.00;54.10;;;;;;5047836;28;20188;-75
2022/06/09 08:39:39;;;;;;;2.90;1.30;;;12.00;54.10;;;;;;5055925;28;20178;-76
2022/06/09 08:42:18;;;;;;;1.90;1.40;;;12.20;53.50;;;;;;5053408;28;20183;-76
2022/06/09 08:45:02;;;;;;;1.70;1.30;;;12.20;53.50;;;;;;5044633;28;20176;-76
2022/06/09 08:47:46;;;;;;;1.00;1.00;;;12.20;53.20;;;;;;5072430;28;20214;-74
2022/06/09 08:50:28;;;;;;;1.47;1.23;;;12.20;53.30;;;;;;5050870;28;20647;-77
2022/06/09 08:53:45;;;;;;;1.70;1.40;;;12.20;53.40;;;;;;5058554;28;20682;-76
2022/06/09 08:56:13;;;;;;;1.97;1.40;;;12.20;53.90;;;;;;5035478;28;20184;-79
2022/06/09 08:58:45;;;;;;;1.33;1.10;;;12.20;53.80;;;;;;5036432;28;20218;-77
2022/06/09 09:01:14;;;;;;;2.43;1.23;;;12.20;53.80;;;;;;5050841;28;20195;-74
2022/06/09 09:04:20;;;;;;;2.40;1.30;;;12.20;54.00;;;;;;5039041;28;20178;-75
2022/06/09 09:07:20;;;;;;;2.93;1.10;;;12.20;54.00;;;;;;5030046;28;20285;-78
2022/06/09 09:09:48;;;;;;;3.30;1.20;;;12.20;54.00;;;;;;5033364;28;20227;-75
2022/06/09 09:12:50;;;;;;;1.23;1.10;;;12.20;54.10;;;;;;5056708;28;20176;-82
2022/06/09 09:15:43;;;;;;;1.83;1.40;;;12.00;54.60;;;;;;5048541;28;20194;-75
2022/06/09 09:18:35;;;;;;;3.43;1.40;;;12.00;54.90;;;;;;5052196;28;20226;-72
2022/06/09 09:21:39;;;;;;;2.90;1.40;;;11.90;55.40;;;;;;5048655;28;20181;-80
2022/06/09 09:24:19;;;;;;;1.60;1.50;;;11.80;55.40;;;;;;5031682;28;20180;-77
2022/06/09 09:27:04;;;;;;;2.10;1.33;;;11.80;55.80;;;;;;5065882;28;20219;-77
2022/06/09 09:29:47;;;;;;;1.50;1.30;;;11.70;56.10;;;;;;5049258;28;20231;-74
2022/06/09 09:32:29;;;;;;;3.50;1.50;;;11.60;56.30;;;;;;5036699;28;20184;-75
2022/06/09 09:34:57;;;;;;;1.40;1.30;;;11.70;55.90;;;;;;5032775;28;20658;-76
2022/06/09 09:37:37;;;;;;;2.30;1.50;;;11.60;56.10;;;;;;5035549;28;20215;-76
2022/06/09 09:40:07;;;;;;;1.83;1.50;;;11.60;56.20;;;;;;5042418;28;20194;-76
2022/06/09 09:42:37;;;;;;;1.63;1.53;;;11.50;56.40;;;;;;5051577;28;20180;-75
2022/06/09 09:45:10;;;;;;;2.00;1.70;;;11.50;56.50;;;;;;5061031;28;20199;-77
2022/06/09 09:47:58;;;;;;;1.73;1.40;;;11.50;56.20;;;;;;5046807;28;20184;-77
2022/06/09 09:50:49;;;;;;;3.10;1.53;;;11.50;56.60;;;;;;5031613;28;20541;-78
2022/06/09 09:53:19;;;;;;;3.00;1.70;;;11.40;56.50;;;;;;5040607;28;20647;-76
2022/06/09 09:56:02;;;;;;;2.60;1.50;;;11.40;56.70;;;;;;5042542;28;20180;-75
2022/06/09 09:58:40;;;;;;;4.13;1.50;;;11.30;57.00;;;;;;5032597;28;20189;-77
2022/06/09 10:08:35;;;;;;;1.80;1.60;;;11.30;56.80;;;;;;5043528;28;20180;-77
2022/06/09 10:10:26;;;;;;;2.10;1.70;;;11.20;57.60;;;;;;5055857;28;20306;-78
2022/06/09 10:12:56;;;;;;;5.10;1.70;;;11.20;57.90;;;;;;5047036;28;20182;-76
2022/06/09 10:15:26;;;;;;;2.37;1.80;;;11.20;58.10;;;;;;5036620;28;20195;-77
2022/06/09 10:18:09;;;;;;;1.70;1.60;;;11.10;58.20;;;;;;5048855;28;20267;-80
2022/06/09 10:20:43;;;;;;;1.93;1.50;;;11.00;58.30;;;;;;5042584;28;20261;-80
2022/06/09 10:23:11;;;;;;;1.70;1.60;;;11.10;58.60;;;;;;5036326;28;20176;-77
2022/06/09 10:26:11;;;;;;;2.47;1.70;;;10.90;58.70;;;;;;5043912;28;20226;-78
2022/06/09 10:28:58;;;;;;;2.70;1.50;;;11.00;59.50;;;;;;5067928;28;20204;-79
2022/06/09 10:31:38;;;;;;;1.97;1.50;;;11.00;59.00;;;;;;5040036;28;20318;-79
2022/06/09 10:34:18;;;;;;;2.40;1.50;;;10.90;59.10;;;;;;5063689;28;20190;-78
2022/06/09 10:36:58;;;;;;;1.50;1.40;;;11.00;59.50;;;;;;5043751;28;20266;-78
2022/06/09 10:39:38;;;;;;;3.30;1.80;;;11.00;59.60;;;;;;5038230;28;20176;-76
2022/06/09 10:42:31;;;;;;;1.43;1.30;;;10.90;60.00;;;;;;5059726;28;20215;-76
2022/06/09 10:45:17;;;;;;;2.97;1.67;;;10.90;59.90;;;;;;5034739;28;20199;-77
2022/06/09 10:57:06;;;;;;;3.07;2.17;;;10.80;60.70;;;;;;5036061;28;20595;-75
2022/06/09 10:59:45;;;;;;;3.00;1.90;;;10.80;61.20;;;;;;5059534;28;20191;-79
2022/06/09 11:02:19;;;;;;;4.30;2.70;;;10.70;61.30;;;;;;5047977;28;20193;-76
2022/06/09 11:04:48;;;;;;;4.90;2.90;;;10.70;61.30;;;;;;5036681;28;20182;-76
2022/06/09 11:07:57;;;;;;;2.30;1.90;;;10.70;62.10;;;;;;5057760;28;20191;-78
2022/06/09 11:10:44;;;;;;;6.03;2.43;;;10.60;62.00;;;;;;5030491;28;20212;-79
2022/06/09 11:13:25;;;;;;;3.73;2.10;;;10.60;62.10;;;;;;5035613;28;20211;-76
2022/06/09 11:16:00;;;;;;;4.13;1.97;;;10.60;62.30;;;;;;5051249;28;20190;-75
2022/06/09 11:18:48;;;;;;;2.60;2.10;;;10.50;62.60;;;;;;5049628;28;20186;-75
2022/06/09 11:21:22;;;;;;;2.30;2.10;;;10.50;62.40;;;;;;5051055;28;20191;-77
2022/06/09 11:24:30;;;;;;;2.67;2.00;;;10.50;62.10;;;;;;5044741;28;20173;-77
2022/06/09 11:27:25;;;;;;;4.93;2.07;;;10.50;61.90;;;;;;5042345;28;20223;-78
2022/06/09 11:30:24;;;;;;;3.50;2.30;;;10.50;62.10;;;;;;5032334;28;20223;-74
2022/06/09 11:33:22;;;;;;;2.70;2.10;;;10.50;62.20;;;;;;5035304;28;20597;-76
2022/06/09 11:35:56;;;;;;;2.67;2.20;;;10.50;62.20;;;;;;5045108;28;20194;-76
2022/06/09 11:38:47;;;;;;;2.57;2.07;;;10.40;62.30;;;;;;5038454;28;20175;-76
2022/06/09 11:42:03;;;;;;;2.83;1.90;;;10.40;62.30;;;;;;5035103;28;20183;-77
2022/06/09 11:44:35;;;;;;;2.80;2.23;;;10.30;62.80;;;;;;5026988;28;20202;-76
2022/06/09 11:47:26;;;;;;;2.10;1.90;;;10.30;63.20;;;;;;5034782;28;20187;-76
2022/06/09 11:50:01;;;;;;;2.53;1.90;;;10.30;62.50;;;;;;5047463;28;20207;-73
2022/06/09 11:52:42;;;;;;;3.77;1.87;;;10.40;62.10;;;;;;5050901;28;20187;-75
2022/06/09 11:55:58;;;;;;;4.27;2.40;;;10.50;62.10;;;;;;5039237;28;20518;-71
2022/06/09 11:58:38;;;;;;;1.90;1.80;;;10.50;61.90;;;;;;5044181;28;20196;-75
2022/06/09 12:01:08;;;;;;;2.00;1.80;;;10.60;61.70;;;;;;5061196;28;20621;-73
2022/06/09 12:03:45;;;;;;;1.93;1.73;;;10.60;61.80;;;;;;5034581;28;20183;-76
2022/06/09 12:06:50;;;;;;;2.33;1.90;;;10.70;61.60;;;;;;5048837;28;20210;-78
2022/06/09 12:09:20;;;;;;;1.93;1.50;;;10.60;61.60;;;;;;5029521;28;20204;-76
2022/06/09 12:12:05;;;;;;;2.83;1.90;;;10.70;61.40;;;;;;5041171;28;20177;-73
2022/06/09 12:14:40;;;;;;;1.60;1.50;;;10.70;61.40;;;;;;5039334;28;20282;-76
2022/06/09 12:17:13;;;;;;;3.63;1.67;;;10.70;61.40;;;;;;5053543;28;20183;-77
2022/06/09 12:19:59;;;;;;;3.20;1.70;;;10.70;61.30;;;;;;5055264;28;20183;-76
2022/06/09 12:22:45;;;;;;;1.90;1.60;;;10.70;61.40;;;;;;5034441;28;20181;-79
2022/06/09 12:25:16;;;;;;;1.53;1.40;;;10.70;61.60;;;;;;5039138;28;20298;-76
2022/06/09 12:27:48;;;;;;;4.97;1.60;;;10.70;61.40;;;;;;5034456;28;20199;-74
2022/06/09 12:30:32;;;;;;;1.60;1.50;;;10.70;61.50;;;;;;5036389;28;20697;-77
2022/06/09 12:33:24;;;;;;;2.00;1.70;;;10.70;61.70;;;;;;5034634;28;20266;-78
2022/06/09 12:36:10;;;;;;;1.73;1.53;;;10.70;61.70;;;;;;5044369;28;20206;-78
2022/06/09 12:38:56;;;;;;;1.80;1.50;;;10.70;61.50;;;;;;5037684;28;20175;-78
2022/06/09 12:41:29;;;;;;;4.33;1.70;;;10.70;61.30;;;;;;5046837;28;20181;-78
2022/06/09 12:44:20;;;;;;;4.70;1.70;;;10.70;61.60;;;;;;5035587;28;20202;-78
2022/06/09 12:46:56;;;;;;;3.80;1.77;;;10.60;61.80;;;;;;5039701;28;20186;-77
2022/06/09 12:49:27;;;;;;;4.20;1.73;;;10.60;62.00;;;;;;5032701;28;20308;-79
2022/06/09 12:51:55;;;;;;;3.50;1.80;;;10.50;62.10;;;;;;5058354;28;20185;-77
2022/06/09 12:54:32;;;;;;;2.03;1.90;;;10.40;62.70;;;;;;5038521;28;20183;-79
2022/06/09 12:57:05;;;;;;;4.37;2.00;;;10.30;63.10;;;;;;5039783;28;20186;-78
2022/06/09 12:59:38;;;;;;;2.57;1.70;;;10.30;63.10;;;;;;5032550;28;20238;-83
2022/06/09 13:02:31;;;;;;;1.73;1.60;;;10.30;63.20;;;;;;5056809;28;20526;-78
2022/06/09 13:05:15;;;;;;;2.63;1.67;;;10.30;63.50;;;;;;5033558;28;20188;-76
2022/06/09 13:07:54;;;;;;;2.40;1.90;;;10.30;63.60;;;;;;5033532;28;20266;-77
2022/06/09 13:10:29;;;;;;;1.73;1.53;;;10.30;63.60;;;;;;5044146;28;20220;-75
2022/06/09 13:13:16;;;;;;;1.97;1.67;;;10.30;63.70;;;;;;5060004;28;20184;-78
2022/06/09 13:15:48;;;;;;;2.73;1.83;;;10.20;64.10;;;;;;5046509;28;20917;-76
2022/06/09 13:18:38;;;;;;;1.80;1.70;;;10.20;64.40;;;;;;5047152;28;20175;-77
2022/06/09 13:21:16;;;;;;;2.57;1.80;;;10.20;64.50;;;;;;5037248;28;20273;-78
2022/06/09 13:23:47;;;;;;;3.30;1.60;;;10.10;64.80;;;;;;5033101;28;20183;-79
2022/06/09 13:26:21;;;;;;;4.07;1.70;;;10.10;65.20;;;;;;5033003;28;20254;-78
2022/06/09 13:28:54;;;;;;;2.03;1.80;;;10.00;65.10;;;;;;5039121;28;20230;-80
2022/06/09 13:31:37;;;;;;;2.00;1.80;;;10.00;65.70;;;;;;5055276;28;20194;-80
2022/06/09 13:34:10;;;;;;;2.03;1.67;;;9.90;65.60;;;;;;5043661;28;20267;-78
2022/06/09 13:37:01;;;;;;;1.67;1.53;;;9.90;65.80;;;;;;5038124;28;20183;-83
2022/06/09 13:39:36;;;;;;;2.97;1.63;;;10.00;65.70;;;;;;5046483;28;20269;-79
2022/06/09 13:42:26;;;;;;;1.73;1.60;;;10.00;65.50;;;;;;5039852;28;20179;-81
2022/06/09 13:45:16;;;;;;;1.73;1.63;;;10.00;65.50;;;;;;5051605;28;20179;-82
2022/06/09 13:48:05;;;;;;;1.93;1.50;;;9.90;65.90;;;;;;5038342;28;20260;-81